Wyoming, Ohio
Current Conditions -  °F | °C
As of 6:53 AM on Monday 24 Nov 2014 (Local Time) from KHAO Reporting Station
Broken Clouds Broken Clouds  
Wind Chill: 17°   Ceiling: 4700
Heat Index: 17°   Visibility: 10mi
Dew Point: 12°   Wind: 15mph
Humidity: 75%   Direction: 190°S
Pressure: 29.29"   Gusts: 25mph
Location:  39.246°N, 84.538°W
Report Text: KHAO 241153Z AUTO 19013G22KT 10SM SCT029 BKN047 17/12 A2929 RMK AO2 SLP918 60000 70075 T01670122 10167 20150 58013
Loading
Personal Weather Stations






























Interactive Weather Map New forecast layout! Learn more

10-Day Weather Forecast

Advertisements
Track Severe Weather on mobile